This is the latest recevied weather packets stored in our database for station/object WA9AFM. If no packets are shown the sender has not sent any weather packets the latest 10 day(s).
| Time | Temp. | Humidity | Pressure | Rain* | Wind** | Luminosity | Snow |
|---|---|---|---|---|---|---|---|
| 1787789005 | 33.89° C | 51% | 1007.2 hPa | 0 mm | - | - | - |
| 1787788105 | 33.89° C | 51% | 1007.5 hPa | 0 mm | - | - | - |
| 1787787204 | 33.89° C | 53% | 1007.6 hPa | 0 mm | - | - | - |
| 1787786304 | 34.44° C | 52% | 1007.6 hPa | 0 mm | - | - | - |
| 1787785406 | 35° C | 51% | 1007.8 hPa | 0 mm | - | - | - |
| 1787784505 | 35.56° C | 50% | 1007.9 hPa | 0 mm | - | - | - |
| 1787783604 | 35° C | 51% | 1007.9 hPa | 0 mm | - | - | - |
| 1787782705 | 34.44° C | 52% | 1008.2 hPa | 0 mm | - | - | - |
| 1787781804 | 33.89° C | 54% | 1008.4 hPa | 0 mm | - | - | - |
| 1787780906 | 33.33° C | 58% | 1008.7 hPa | 0 mm | - | - | - |
| 1787780005 | 32.78° C | 61% | 1008.9 hPa | 0 mm | - | - | - |
| 1787779104 | 31.67° C | 62% | 1009 hPa | 0 mm | - | - | - |
| 1787778206 | 31.67° C | 62% | 1009.3 hPa | 0 mm | - | - | - |
| 1787777305 | 31.67° C | 64% | 1009.5 hPa | 0 mm | - | - | - |
| 1787776404 | 31.11° C | 66% | 1009.7 hPa | 0 mm | - | - | - |
| 1787775505 | 30.56° C | 68% | 1009.8 hPa | 0 mm | - | - | - |
| 1787774605 | 30.56° C | 69% | 1009.9 hPa | 0 mm | - | - | - |
| 1787773705 | 30.56° C | 69% | 1010 hPa | 0 mm | - | - | - |
| 1787772804 | 30.56° C | 67% | 1010.3 hPa | 0 mm | - | - | - |
| 1787771905 | 31.11° C | 67% | 1010.4 hPa | 0 mm | - | - | - |
| 1787771005 | 31.11° C | 67% | 1010.7 hPa | 0 mm | - | - | - |
| 1787770106 | 31.11° C | 66% | 1011 hPa | 0 mm | - | - | - |
| 1787769205 | 30.56° C | 69% | 1011 hPa | 0 mm | - | - | - |
| 1787768304 | 29.44° C | 74% | 1011.1 hPa | 0 mm | - | - | - |
| 1787767405 | 29.44° C | 74% | 1011.1 hPa | 0 mm | - | - | - |
* Rain latest hour (hover to see other rain measurements)
** Current wind speed in m/s (hover to see current wind gust speed)